createdAt,value
2019-01-06T00:02:57.036Z,4.10
2019-01-06T00:05:57.386Z,4.30
2019-01-06T00:08:59.040Z,4.00
2019-01-06T00:11:59.243Z,4.30
2019-01-06T00:15:00.736Z,4.10
2019-01-06T00:17:53.868Z,4.10
2019-01-06T00:21:00.033Z,4.10
2019-01-06T00:23:59.747Z,4.20
2019-01-06T00:26:59.816Z,3.90
2019-01-06T00:29:59.260Z,3.90
2019-01-06T00:32:59.280Z,4.10
2019-01-06T00:35:59.643Z,3.90
2019-01-06T00:38:59.089Z,4.30
2019-01-06T00:41:59.371Z,4.20
2019-01-06T00:44:58.873Z,4.10
2019-01-06T00:47:58.436Z,4.10
2019-01-06T00:50:58.512Z,4.20
2019-01-06T00:53:57.934Z,4.20
2019-01-06T00:56:57.904Z,4.00
2019-01-06T00:59:58.045Z,4.30
2019-01-06T01:02:57.467Z,3.90
2019-01-06T01:05:56.943Z,4.10
2019-01-06T01:08:51.763Z,4.20
2019-01-06T01:11:48.020Z,4.30
2019-01-06T01:14:47.845Z,4.00
2019-01-06T01:17:47.541Z,3.90
2019-01-06T01:20:47.033Z,4.20
2019-01-06T01:23:42.447Z,4.20
2019-01-06T01:26:48.232Z,4.10
2019-01-06T01:29:33.079Z,4.20
2019-01-06T01:32:32.579Z,4.10
2019-01-06T01:35:34.976Z,4.10
2019-01-06T01:38:34.734Z,4.20
2019-01-06T01:41:34.503Z,4.30
2019-01-06T01:44:34.104Z,4.00
2019-01-06T01:47:34.308Z,4.30
2019-01-06T01:50:33.704Z,4.10
2019-01-06T01:53:33.472Z,4.00
2019-01-06T01:56:28.853Z,3.90
2019-01-06T01:59:24.156Z,4.20
2019-01-06T02:02:23.741Z,4.20
2019-01-06T02:05:23.284Z,4.20
2019-01-06T02:08:28.763Z,4.30
2019-01-06T02:11:28.759Z,4.10
2019-01-06T02:14:28.908Z,3.80
2019-01-06T02:17:29.211Z,4.00
2019-01-06T02:20:29.852Z,4.20
2019-01-06T02:23:29.276Z,4.30
2019-01-06T02:26:29.002Z,4.30
2019-01-06T02:29:28.508Z,4.00
2019-01-06T02:32:34.034Z,4.20
2019-01-06T02:35:33.616Z,4.20
2019-01-06T02:38:34.548Z,3.90
2019-01-06T02:41:34.621Z,3.90
2019-01-06T02:44:34.607Z,4.20
2019-01-06T02:47:38.420Z,3.90
2019-01-06T02:50:38.432Z,4.20
2019-01-06T02:53:34.779Z,4.20
2019-01-06T02:56:34.205Z,3.80
2019-01-06T02:59:34.451Z,4.10
2019-01-06T03:02:33.927Z,4.20
2019-01-06T03:05:37.214Z,3.80
2019-01-06T03:08:44.291Z,4.00
2019-01-06T03:11:39.805Z,4.00
2019-01-06T03:14:46.916Z,4.20
2019-01-06T03:17:54.076Z,4.10
2019-01-06T03:21:01.170Z,4.10
2019-01-06T03:24:08.316Z,4.20
2019-01-06T03:27:15.422Z,4.30
2019-01-06T03:30:22.977Z,3.90
2019-01-06T03:33:30.088Z,3.90
2019-01-06T03:36:35.755Z,3.90
2019-01-06T03:39:42.851Z,3.90
2019-01-06T03:42:49.964Z,4.20
2019-01-06T03:45:57.079Z,3.90
2019-01-06T03:49:04.267Z,3.90
2019-01-06T03:52:04.161Z,4.20
2019-01-06T03:55:03.700Z,4.20
2019-01-06T03:58:03.104Z,3.90
2019-01-06T04:01:02.848Z,4.20
2019-01-06T04:04:02.593Z,4.00
2019-01-06T04:07:02.403Z,4.20
2019-01-06T04:10:02.609Z,3.90
2019-01-06T04:13:02.063Z,4.00
2019-01-06T04:16:07.708Z,4.30
2019-01-06T04:19:09.741Z,4.10
2019-01-06T04:25:31.644Z,4.00
2019-01-06T04:31:37.723Z,4.20
2019-01-06T04:34:40.774Z,3.90
2019-01-06T04:37:40.770Z,3.90
2019-01-06T04:40:40.647Z,4.10
2019-01-06T04:47:00.044Z,4.20
2019-01-06T04:56:09.696Z,3.60
2019-01-06T05:11:39.324Z,3.90
2019-01-06T05:20:24.173Z,4.20
2019-01-06T05:23:26.788Z,4.10
2019-01-06T05:26:26.686Z,3.80
2019-01-06T05:29:17.420Z,4.00
2019-01-06T05:47:17.345Z,3.90
2019-01-06T05:53:38.449Z,4.00
2019-01-06T05:59:28.422Z,3.70
2019-01-06T06:05:53.573Z,3.70
2019-01-06T06:11:36.636Z,3.90
2019-01-06T06:20:10.993Z,3.70
2019-01-06T06:23:02.367Z,3.80
2019-01-06T06:26:02.663Z,4.00
2019-01-06T06:32:12.902Z,3.60
2019-01-06T06:35:12.284Z,3.60
2019-01-06T06:38:08.108Z,3.70
2019-01-06T06:41:08.356Z,3.80
2019-01-06T06:49:48.144Z,3.80
2019-01-06T06:52:31.615Z,3.60
2019-01-06T06:55:33.724Z,3.60
2019-01-06T06:58:35.391Z,3.70
2019-01-06T07:01:36.906Z,3.60
2019-01-06T07:07:46.521Z,3.50
2019-01-06T07:13:28.472Z,3.90
2019-01-06T07:19:21.440Z,3.90
2019-01-06T07:57:35.036Z,3.60
2019-01-06T08:00:37.151Z,3.70
2019-01-06T08:03:37.722Z,3.70
2019-01-06T08:06:39.295Z,3.50
2019-01-06T08:12:44.165Z,3.90
2019-01-06T08:15:43.737Z,3.60
2019-01-06T08:18:47.721Z,3.50
2019-01-06T08:24:54.420Z,3.30
2019-01-06T08:39:47.087Z,3.70
2019-01-06T08:42:50.202Z,3.50
2019-01-06T08:45:54.185Z,3.30
2019-01-06T08:49:01.229Z,3.30
2019-01-06T08:52:06.798Z,3.40
2019-01-06T08:55:06.311Z,3.30
2019-01-06T08:58:02.946Z,3.50
2019-01-06T09:01:10.480Z,3.70
2019-01-06T09:04:17.672Z,3.80
2019-01-06T09:07:24.758Z,3.90
2019-01-06T09:10:24.219Z,3.50
2019-01-06T09:13:31.600Z,3.60
2019-01-06T09:16:38.931Z,3.50
2019-01-06T09:19:50.511Z,3.70
2019-01-06T09:22:54.932Z,3.90
2019-01-06T09:26:21.301Z,4.00
2019-01-06T09:29:28.424Z,3.80
2019-01-06T09:32:35.612Z,4.10
2019-01-06T09:35:42.964Z,3.60
2019-01-06T09:38:50.250Z,3.60
2019-01-06T09:41:57.511Z,3.90
2019-01-06T09:44:55.719Z,3.80
2019-01-06T09:48:05.366Z,3.70
2019-01-06T09:51:10.495Z,3.90
2019-01-06T09:54:10.998Z,3.90
2019-01-06T09:57:12.131Z,3.60
2019-01-06T10:00:11.758Z,3.90
2019-01-06T10:03:10.015Z,4.10
2019-01-06T10:06:09.815Z,4.00
2019-01-06T10:09:09.432Z,4.20
2019-01-06T10:12:09.703Z,4.20
2019-01-06T10:15:13.490Z,4.30
2019-01-06T10:18:13.150Z,4.30
2019-01-06T10:21:13.687Z,4.10
2019-01-06T10:24:07.228Z,4.10
2019-01-06T10:27:09.396Z,4.30
2019-01-06T10:33:09.786Z,4.40
2019-01-06T10:36:09.817Z,4.50
2019-01-06T10:39:12.753Z,4.50
2019-01-06T10:42:12.580Z,4.10
2019-01-06T10:45:12.351Z,4.20
2019-01-06T10:48:11.867Z,4.30
2019-01-06T10:51:11.555Z,4.50
2019-01-06T10:54:03.342Z,4.50
2019-01-06T10:57:03.381Z,4.40
2019-01-06T11:00:03.015Z,4.30
2019-01-06T11:03:02.524Z,4.50
2019-01-06T11:06:09.018Z,4.40
2019-01-06T11:09:08.756Z,4.10
2019-01-06T11:12:08.260Z,4.30
2019-01-06T11:15:08.575Z,4.20
2019-01-06T11:18:08.163Z,4.40
2019-01-06T11:21:01.169Z,4.50
2019-01-06T11:24:00.592Z,4.50
2019-01-06T11:27:00.097Z,4.30
2019-01-06T11:30:00.425Z,4.60
2019-01-06T11:33:00.739Z,4.30
2019-01-06T11:36:00.884Z,4.10
2019-01-06T11:39:00.814Z,4.20
2019-01-06T11:42:00.927Z,4.40
2019-01-06T11:44:59.267Z,4.40
2019-01-06T11:47:59.444Z,4.30
2019-01-06T11:50:59.011Z,4.50
2019-01-06T11:54:05.106Z,4.60
2019-01-06T11:57:05.346Z,4.50
2019-01-06T12:00:11.632Z,4.30
2019-01-06T12:03:11.254Z,4.20
2019-01-06T12:06:13.884Z,4.60
2019-01-06T12:09:14.242Z,4.30
2019-01-06T12:12:13.685Z,4.40
2019-01-06T12:15:13.337Z,4.50
2019-01-06T12:18:20.541Z,4.30
2019-01-06T12:21:21.118Z,4.50
2019-01-06T12:24:28.313Z,4.50
2019-01-06T12:27:35.445Z,4.30
2019-01-06T12:30:42.523Z,4.60
2019-01-06T12:33:49.668Z,4.80
2019-01-06T12:36:56.803Z,4.80
2019-01-06T12:40:04.015Z,4.60
2019-01-06T12:43:11.136Z,4.30
2019-01-06T12:46:15.130Z,4.50
2019-01-06T12:49:22.211Z,4.50
2019-01-06T12:52:24.584Z,4.60
2019-01-06T12:55:24.265Z,4.50
2019-01-06T12:58:30.264Z,4.80
2019-01-06T13:01:33.123Z,4.80
2019-01-06T13:04:33.160Z,4.60
2019-01-06T13:07:32.624Z,4.70
2019-01-06T13:10:32.313Z,4.70
2019-01-06T13:13:36.794Z,4.90
2019-01-06T13:16:34.236Z,4.50
2019-01-06T13:19:34.522Z,4.50
2019-01-06T13:22:31.312Z,4.80
2019-01-06T13:25:34.393Z,4.60
2019-01-06T13:28:34.413Z,4.80
2019-01-06T13:31:33.064Z,4.40
2019-01-06T13:34:36.110Z,4.50
2019-01-06T13:37:35.732Z,4.30
2019-01-06T13:40:36.071Z,4.50
2019-01-06T13:43:33.808Z,4.40
2019-01-06T13:46:33.619Z,4.60
2019-01-06T13:49:31.372Z,4.60
2019-01-06T13:52:33.915Z,4.20
2019-01-06T13:55:34.486Z,4.00
2019-01-06T13:58:34.692Z,4.10
2019-01-06T14:01:34.733Z,4.30
2019-01-06T14:04:41.723Z,4.30
2019-01-06T14:16:28.471Z,4.10
2019-01-06T14:22:38.359Z,4.30
2019-01-06T14:25:38.545Z,4.30
2019-01-06T14:28:39.612Z,4.30
2019-01-06T14:31:37.832Z,4.20
2019-01-06T14:34:37.402Z,4.10
2019-01-06T14:40:51.823Z,4.10
2019-01-06T14:46:57.847Z,4.30
2019-01-06T14:49:58.265Z,4.20
2019-01-06T14:55:52.588Z,4.10
2019-01-06T15:04:31.607Z,4.20
2019-01-06T15:24:55.527Z,4.20
2019-01-06T15:52:06.648Z,4.10
2019-01-06T16:04:05.859Z,3.90
2019-01-06T16:10:10.272Z,4.30
2019-01-06T16:13:09.824Z,4.10
2019-01-06T16:16:11.133Z,4.00
2019-01-06T16:19:10.708Z,4.00
2019-01-06T16:22:16.480Z,4.00
2019-01-06T16:25:16.808Z,4.30
2019-01-06T16:28:17.041Z,4.20
2019-01-06T16:31:16.600Z,4.20
2019-01-06T16:34:16.611Z,4.30
2019-01-06T16:37:16.887Z,4.00
2019-01-06T16:40:16.464Z,4.30
2019-01-06T16:43:22.031Z,4.20
2019-01-06T16:46:27.989Z,4.10
2019-01-06T16:49:28.401Z,3.90
2019-01-06T16:52:29.492Z,4.30
2019-01-06T16:58:19.715Z,4.20
2019-01-06T17:01:19.834Z,4.30
2019-01-06T17:04:19.367Z,4.20
2019-01-06T17:07:19.229Z,4.30
2019-01-06T17:10:18.698Z,4.10
2019-01-06T17:13:18.161Z,4.10
2019-01-06T17:16:17.585Z,4.00
2019-01-06T17:19:17.036Z,4.20
2019-01-06T17:22:17.325Z,4.10
2019-01-06T17:25:16.957Z,4.20
2019-01-06T17:28:17.102Z,3.90
2019-01-06T17:31:17.690Z,4.10
2019-01-06T17:37:38.222Z,3.90
2019-01-06T17:40:32.964Z,4.20
2019-01-06T17:43:33.159Z,4.20
2019-01-06T17:46:32.661Z,4.10
2019-01-06T17:49:32.988Z,4.30
2019-01-06T17:52:30.213Z,4.00
2019-01-06T17:55:29.795Z,4.20
2019-01-06T17:58:25.275Z,4.10
2019-01-06T18:01:25.091Z,4.20
2019-01-06T18:04:24.555Z,3.90
2019-01-06T18:07:24.029Z,4.10
2019-01-06T18:10:24.445Z,4.30
2019-01-06T18:13:20.431Z,4.00
2019-01-06T18:16:20.660Z,4.00
2019-01-06T18:19:20.228Z,3.90
2019-01-06T18:22:13.940Z,4.10
2019-01-06T18:25:13.391Z,4.20
2019-01-06T18:28:12.789Z,4.10
2019-01-06T18:31:13.047Z,4.20
2019-01-06T18:34:15.611Z,4.10
2019-01-06T18:37:15.629Z,4.10
2019-01-06T18:40:15.224Z,4.50
2019-01-06T18:43:09.771Z,3.90
2019-01-06T18:46:09.895Z,4.10
2019-01-06T18:49:10.116Z,4.20
2019-01-06T18:52:10.189Z,4.20
2019-01-06T18:55:10.500Z,4.30
2019-01-06T18:58:04.476Z,4.50
2019-01-06T19:01:00.408Z,4.20
2019-01-06T19:04:00.471Z,4.10
2019-01-06T19:07:05.982Z,3.90
2019-01-06T19:10:06.297Z,4.10
2019-01-06T19:13:05.814Z,4.00
2019-01-06T19:16:06.024Z,4.10
2019-01-06T19:19:05.564Z,4.10
2019-01-06T19:22:05.105Z,4.30
2019-01-06T19:25:10.816Z,4.20
2019-01-06T19:28:11.012Z,4.10
2019-01-06T19:31:10.412Z,3.90
2019-01-06T19:34:13.449Z,4.10
2019-01-06T19:37:13.728Z,4.10
2019-01-06T19:40:16.811Z,4.20
2019-01-06T19:43:23.072Z,4.00
2019-01-06T19:46:22.696Z,4.30
2019-01-06T19:49:20.799Z,3.90
2019-01-06T19:52:20.840Z,4.20
2019-01-06T19:55:20.351Z,4.00
2019-01-06T19:58:20.680Z,4.20
2019-01-06T20:01:23.791Z,3.90
2019-01-06T20:04:23.368Z,4.20
2019-01-06T20:07:22.806Z,3.90
2019-01-06T20:10:29.904Z,4.00
2019-01-06T20:13:26.901Z,4.20
2019-01-06T20:16:33.357Z,4.20
2019-01-06T20:19:32.827Z,4.10
2019-01-06T20:22:32.868Z,3.90
2019-01-06T20:25:33.127Z,4.30
2019-01-06T20:28:29.971Z,3.90
2019-01-06T20:31:32.567Z,4.00
2019-01-06T20:34:26.116Z,3.90
2019-01-06T20:37:26.381Z,3.90
2019-01-06T20:40:25.932Z,4.30
2019-01-06T20:43:26.142Z,3.90
2019-01-06T20:46:25.676Z,3.90
2019-01-06T20:49:26.095Z,4.10
2019-01-06T20:52:26.124Z,3.90
2019-01-06T20:55:26.307Z,3.60
2019-01-06T20:58:23.932Z,3.90
2019-01-06T21:01:28.532Z,4.20
2019-01-06T21:04:28.558Z,3.60
2019-01-06T21:07:34.703Z,3.80
2019-01-06T21:10:34.161Z,4.20
2019-01-06T21:13:37.303Z,3.80
2019-01-06T21:16:37.179Z,3.90
2019-01-06T21:19:36.682Z,3.80
2019-01-06T21:22:36.260Z,3.90
2019-01-06T21:25:35.641Z,3.90
2019-01-06T21:28:35.931Z,3.90
2019-01-06T21:31:35.389Z,4.00
2019-01-06T21:34:35.737Z,3.60
2019-01-06T21:37:39.347Z,4.00
2019-01-06T21:40:38.857Z,4.00
2019-01-06T21:43:37.079Z,3.70
2019-01-06T21:46:44.188Z,3.80
2019-01-06T21:49:51.274Z,3.70
2019-01-06T21:52:56.731Z,4.00
2019-01-06T21:55:50.920Z,3.50
2019-01-06T21:58:50.679Z,3.90
2019-01-06T22:01:50.748Z,3.80
2019-01-06T22:04:50.616Z,3.50
2019-01-06T22:07:50.980Z,3.90
2019-01-06T22:10:50.407Z,3.70
2019-01-06T22:13:46.035Z,3.90
2019-01-06T22:16:46.547Z,3.40
2019-01-06T22:19:52.679Z,3.60
2019-01-06T22:22:52.988Z,3.90
2019-01-06T22:25:53.053Z,3.30
2019-01-06T22:28:52.391Z,3.30
2019-01-06T22:31:47.077Z,3.40
2019-01-06T22:34:49.742Z,3.70
2019-01-06T22:37:49.169Z,3.70
2019-01-06T22:40:49.486Z,3.50
2019-01-06T22:43:49.775Z,3.50
2019-01-06T22:46:49.140Z,3.40
2019-01-06T22:49:49.810Z,3.40
2019-01-06T22:52:49.211Z,3.50
2019-01-06T22:55:48.613Z,3.50
2019-01-06T22:58:46.023Z,3.60
2019-01-06T23:01:46.338Z,3.50
2019-01-06T23:04:46.452Z,3.50
2019-01-06T23:07:46.692Z,3.60
2019-01-06T23:10:52.431Z,3.30
2019-01-06T23:13:52.533Z,3.50
2019-01-06T23:16:52.497Z,3.40
2019-01-06T23:19:52.660Z,3.30
2019-01-06T23:22:58.172Z,3.30
2019-01-06T23:25:57.796Z,3.30
2019-01-06T23:28:57.996Z,3.60
2019-01-06T23:31:58.302Z,3.40
2019-01-06T23:35:00.230Z,3.60
2019-01-06T23:38:06.212Z,3.30
2019-01-06T23:41:05.827Z,3.20
2019-01-06T23:44:05.849Z,3.60
2019-01-06T23:47:05.480Z,3.00
2019-01-06T23:49:56.320Z,3.30
2019-01-06T23:52:53.976Z,3.20
2019-01-06T23:55:56.583Z,3.20
2019-01-06T23:58:56.134Z,3.60
